createdAt,value
2019-01-28T00:03:39.319Z,2.65
2019-01-28T00:13:39.861Z,2.62
2019-01-28T00:23:39.374Z,2.54
2019-01-28T00:33:39.264Z,2.44
2019-01-28T00:43:39.344Z,2.28
2019-01-28T00:53:39.305Z,2.27
2019-01-28T01:03:39.391Z,2.15
2019-01-28T01:13:39.283Z,2.23
2019-01-28T01:23:39.365Z,2.31
2019-01-28T01:33:39.412Z,2.24
2019-01-28T01:43:39.344Z,2.15
2019-01-28T01:53:39.298Z,2.03
2019-01-28T02:03:39.401Z,1.95
2019-01-28T02:13:39.425Z,2.04
2019-01-28T02:23:39.368Z,2.08
2019-01-28T02:33:39.209Z,2.13
2019-01-28T02:43:40.205Z,2.14
2019-01-28T02:53:39.394Z,1.96
2019-01-28T03:03:39.293Z,1.69
2019-01-28T03:13:39.265Z,1.57
2019-01-28T03:23:39.274Z,1.55
2019-01-28T03:33:39.248Z,1.64
2019-01-28T03:43:39.265Z,1.74
2019-01-28T03:53:39.318Z,1.80
2019-01-28T04:03:39.901Z,1.85
2019-01-28T04:13:39.295Z,1.77
2019-01-28T04:23:39.300Z,1.61
2019-01-28T04:33:39.331Z,1.59
2019-01-28T04:43:39.250Z,1.58
2019-01-28T04:53:39.106Z,1.54
2019-01-28T05:03:39.258Z,1.50
2019-01-28T05:13:39.293Z,1.41
2019-01-28T05:23:39.982Z,1.43
2019-01-28T05:33:39.204Z,1.32
2019-01-28T05:43:39.271Z,1.35
2019-01-28T05:53:39.241Z,1.30
2019-01-28T06:03:39.322Z,1.19
2019-01-28T06:13:39.264Z,1.19
2019-01-28T06:23:40.084Z,1.23
2019-01-28T06:33:40.161Z,1.24
2019-01-28T06:43:39.434Z,1.23
2019-01-28T06:53:39.387Z,1.26
2019-01-28T07:03:39.205Z,1.33
2019-01-28T07:13:39.166Z,1.30
2019-01-28T07:23:40.201Z,1.25
2019-01-28T07:33:39.193Z,1.25
2019-01-28T07:43:39.260Z,1.23
2019-01-28T07:53:39.395Z,1.16
2019-01-28T08:03:39.198Z,0.98
2019-01-28T08:13:39.778Z,0.86
2019-01-28T08:23:39.711Z,0.80
2019-01-28T08:33:39.246Z,0.67
2019-01-28T08:43:40.126Z,0.59
2019-01-28T08:53:39.516Z,0.57
2019-01-28T09:03:39.810Z,0.50
2019-01-28T09:13:39.256Z,0.53
2019-01-28T09:23:39.324Z,0.48
2019-01-28T09:33:39.278Z,0.46
2019-01-28T09:43:39.249Z,0.49
2019-01-28T09:53:39.284Z,0.63
2019-01-28T10:03:39.250Z,0.84
2019-01-28T10:13:39.258Z,1.20
2019-01-28T10:23:39.316Z,1.49
2019-01-28T10:33:39.152Z,1.60
2019-01-28T10:43:40.029Z,1.71
2019-01-28T10:53:39.913Z,1.88
2019-01-28T11:03:40.134Z,1.96
2019-01-28T11:13:39.328Z,2.06
2019-01-28T11:23:40.212Z,2.20
2019-01-28T11:33:40.240Z,2.29
2019-01-28T11:43:39.521Z,2.38
2019-01-28T11:53:39.086Z,2.41
2019-01-28T12:03:39.295Z,2.66
2019-01-28T12:13:39.353Z,2.40
2019-01-28T12:23:39.280Z,2.19
2019-01-28T12:33:39.685Z,2.01
2019-01-28T12:43:39.306Z,2.26
2019-01-28T12:53:39.206Z,2.70
2019-01-28T13:03:39.210Z,3.01
2019-01-28T13:13:41.154Z,3.31
2019-01-28T13:23:39.124Z,3.51
2019-01-28T13:33:39.957Z,3.70
2019-01-28T13:43:39.258Z,4.07
2019-01-28T13:53:39.523Z,4.36
2019-01-28T14:03:39.250Z,4.19
2019-01-28T14:13:39.335Z,5.26
2019-01-28T14:23:39.140Z,6.77
2019-01-28T14:33:39.211Z,6.74
2019-01-28T14:43:39.171Z,5.92
2019-01-28T14:53:39.155Z,5.82
2019-01-28T15:03:39.242Z,5.01
2019-01-28T15:13:39.224Z,4.31
2019-01-28T15:23:39.064Z,3.99
2019-01-28T15:33:39.376Z,3.70
2019-01-28T15:43:39.468Z,3.36
2019-01-28T15:53:39.205Z,3.17
2019-01-28T16:03:39.187Z,3.22
2019-01-28T16:13:39.066Z,3.27
2019-01-28T16:23:39.129Z,3.21
2019-01-28T16:33:39.235Z,3.11
2019-01-28T16:43:39.127Z,3.03
2019-01-28T16:53:39.159Z,2.97
2019-01-28T17:03:39.071Z,2.87
2019-01-28T17:13:39.052Z,2.72
2019-01-28T17:23:39.282Z,2.51
2019-01-28T17:33:41.000Z,2.37
2019-01-28T17:43:41.714Z,2.39
2019-01-28T17:53:39.037Z,2.26
2019-01-28T18:03:39.142Z,2.10
2019-01-28T18:13:39.088Z,2.00
2019-01-28T18:23:39.032Z,1.79
2019-01-28T18:33:39.040Z,1.65
2019-01-28T18:43:39.039Z,1.59
2019-01-28T18:53:39.040Z,1.61
2019-01-28T19:03:39.107Z,1.54
2019-01-28T19:13:39.081Z,1.46
2019-01-28T19:23:39.079Z,1.23
2019-01-28T19:33:39.971Z,1.30
2019-01-28T19:43:38.997Z,1.32
2019-01-28T19:53:39.120Z,1.33
2019-01-28T20:03:39.062Z,1.38
2019-01-28T20:13:39.122Z,1.35
2019-01-28T20:23:39.115Z,1.37
2019-01-28T20:33:39.106Z,1.40
2019-01-28T20:43:39.052Z,1.42
2019-01-28T20:53:39.267Z,1.39
2019-01-28T21:03:39.042Z,1.45
2019-01-28T21:13:39.164Z,1.49
2019-01-28T21:23:39.007Z,1.49
2019-01-28T21:33:39.636Z,1.40
2019-01-28T21:43:39.167Z,1.32
2019-01-28T21:53:39.542Z,1.33
2019-01-28T22:03:39.018Z,1.43
2019-01-28T22:13:38.987Z,1.47
2019-01-28T22:23:38.971Z,1.50
2019-01-28T22:33:39.070Z,1.49
2019-01-28T22:43:39.009Z,1.46
2019-01-28T22:53:39.072Z,1.42
2019-01-28T23:03:39.836Z,1.39
2019-01-28T23:13:39.064Z,1.39
2019-01-28T23:23:39.015Z,1.39
2019-01-28T23:33:39.791Z,1.36
2019-01-28T23:43:39.097Z,1.35
2019-01-28T23:53:39.031Z,1.36
